createdAt,value
2022-12-18T10:30:53.467Z,1.49
2022-12-18T10:31:55.464Z,2.06
2022-12-18T10:32:57.505Z,2.69
2022-12-18T10:33:59.522Z,3.08
2022-12-18T10:35:01.546Z,3.07
2022-12-18T10:36:03.558Z,3.46
2022-12-18T10:37:05.590Z,3.83
2022-12-18T10:38:07.640Z,4.63
2022-12-18T10:39:09.076Z,4.49
2022-12-18T10:40:11.894Z,3.87
2022-12-18T10:41:12.889Z,4.30
2022-12-18T10:42:14.920Z,4.22
2022-12-18T10:43:16.933Z,4.62
2022-12-18T10:44:18.924Z,4.85
2022-12-18T10:45:20.936Z,5.09
2022-12-18T10:46:23.045Z,5.31
2022-12-18T10:47:25.098Z,5.38
2022-12-18T10:48:27.170Z,5.94
2022-12-18T10:49:29.176Z,6.44
2022-12-18T10:51:01.300Z,6.35
2022-12-18T10:51:32.632Z,6.34
2022-12-18T10:52:34.720Z,5.91
2022-12-18T10:53:36.729Z,5.98
2022-12-18T10:54:38.767Z,6.48
2022-12-18T10:55:40.774Z,6.73
2022-12-18T10:56:42.783Z,5.42
2022-12-18T10:57:44.052Z,5.31
2022-12-18T10:58:46.607Z,5.69
2022-12-18T10:59:47.708Z,6.48
2022-12-18T11:00:49.712Z,7.40
2022-12-18T11:01:51.920Z,7.82
2022-12-18T11:02:53.170Z,7.03
2022-12-18T11:04:00.338Z,7.20
2022-12-18T11:04:55.896Z,6.40
2022-12-18T11:05:57.903Z,6.11
2022-12-18T11:06:59.922Z,6.27
2022-12-18T11:08:01.956Z,5.89
2022-12-18T11:09:08.023Z,5.56
2022-12-18T11:10:05.417Z,5.09
2022-12-18T11:11:07.453Z,4.56
2022-12-18T11:12:09.461Z,2.90
2022-12-18T11:13:11.479Z,1.71
2022-12-18T12:06:50.545Z,-2.00
